Lathams Corners, New York
Current Conditions -  °F | °C
As of 12:53 PM on Friday 21 Nov 2014 (Local Time) from KBGM Reporting Station
Broken Clouds Broken Clouds  
Wind Chill: 11°   Ceiling: 2600
Heat Index: 23°   Visibility: 9mi
Dew Point: 15°   Wind: 14mph
Humidity: 72%   Direction: 310°NW
Pressure: 30.26"   Gusts: 24mph
Location:  42.5358°N, 75.3475°W
Report Text: KBGM 211753Z 31012G21KT 9SM BKN026 BKN031 M05/M09 A3026 RMK AO2 SNE51 SLP272 P0000 60000 T10501094 11044 21089 51020
Loading
Personal Weather Stations






























Interactive Weather Map New forecast layout! Learn more

10-Day Weather Forecast

Advertisements
Track Severe Weather on mobile